Chapleau Airport
CYLD : now visible

Airfield :











YOU CAN JOIN US ON...

 
LOGIN :

Register | Disclaimer

   EN    FR    IT 

 









Legend :    VFR   Marginal VFR   IFR   Intensive IFR   Very Intensive IFR
Visi :
Ceiling :
>= 8 km
>= 3000ft
5 to 8 km
1000 to 3000 ft
1500m to 5 km
500 to 1000 ft
800 to 1500m
200 to 500 ft
< 800m
< 200 ft
Symbols :   Thunderstorms  Fog  Heavy snow  Heavy precipitations  Wind > 20 kt







- Airport Elevation : 1470 ft
- IATA code : YLD


CYLD - Chapleau

CURRENT METAR :
  • 191900Z 03005KT 330V050 15SM FEW260 08/M04 A2991 RMK CI1 SLP148

EXPIRED METARs :
  • 191800Z 36011KT 15SM SCT260 SCT280 07/M04 A2991 RMK CI3CC1 CC TR SLP149
  • 191700Z 35008KT 320V040 15SM SCT260 SCT280 06/M03 A2992 RMK CI3CC1 CC TR SLP152

TAF TAF CYLD
Valid from the 19 at 20:00 until the 20 at 01:00 UTC


191943Z 1920/2001 03005KT P6SM FEW260
BECMG 1923/2001 VRB03KT RMK NXT FCST WILL BE ISSUED AT 201145Z
CZYZ FIR / North America



MET'MAP, your aeronautical weather chart ! - Copyright ORBIFLY December 2007 - Disclaimer

ORBIFLY MET'MAP TEAM :

Programming & Development : Alexandra Zaïnal
Concept & Development : Baudouin d'Aumeries
Co-Development & Prog : Marc-Olivier Méhu
Technical & hardware support : Manuel Goepfert

Contact : metmap@orbifly.com




SOURCES & CREDITS :

   NOAA       Earth
Advisory